Time;durP1;ratioP1;P1;durP2;ratioP2;P2;SDS_P1;SDS_P2;PMS_P1;PMS_P2;Temp;Humidity;BMP_temperature;BMP_pressure;BME280_temperature;BME280_humidity;BME280_pressure;Samples;Min_cycle;Max_cycle;Signal;HPM_P1;HPM_P2
2022/02/15 00:00:31;;;;;;;18.15;9.38;;;;;;;7.93;74.45;98371.38;5094694;28;20020;-48
2022/02/15 00:02:57;;;;;;;12.77;9.88;;;;;;;7.87;74.73;98379.94;5094709;28;20067;-49
2022/02/15 00:05:22;;;;;;;27.95;21.05;;;;;;;7.72;75.13;98372.19;5093240;28;20532;-47
2022/02/15 00:07:48;;;;;;;39.88;31.30;;;;;;;7.55;75.88;98376.91;5093207;28;20123;-49
2022/02/15 00:10:14;;;;;;;43.83;35.05;;;;;;;7.78;76.75;98382.69;5094385;28;20027;-49
2022/02/15 00:12:41;;;;;;;26.27;22.52;;;;;;;8.07;75.95;98382.69;5093096;28;20050;-48
2022/02/15 00:15:08;;;;;;;23.55;21.05;;;;;;;8.05;75.22;98385.50;5094310;28;20027;-49
2022/02/15 00:17:35;;;;;;;23.40;21.02;;;;;;;8.10;76.07;98380.50;5094297;28;20020;-49
2022/02/15 00:20:01;;;;;;;66.15;57.85;;;;;;;8.30;75.70;98383.22;5092985;28;20148;-49
2022/02/15 00:22:27;;;;;;;39.63;29.85;;;;;;;8.46;75.80;98381.34;5094215;28;20055;-48
2022/02/15 00:24:53;;;;;;;26.45;20.23;;;;;;;8.56;75.61;98379.16;5094301;28;20504;-48
2022/02/15 00:27:18;;;;;;;30.83;17.20;;;;;;;8.67;75.25;98378.63;5094108;28;20096;-49
2022/02/15 00:29:44;;;;;;;22.90;17.27;;;;;;;8.57;75.51;98373.75;5092778;28;20024;-50
2022/02/15 00:32:10;;;;;;;19.60;16.30;;;;;;;8.62;76.29;98383.63;5094031;28;20012;-47
2022/02/15 00:34:35;;;;;;;349.40;311.67;;;;;;;8.73;76.23;98395.31;5093979;28;20429;-48
2022/02/15 00:37:02;;;;;;;305.10;273.17;;;;;;;8.87;76.76;98390.94;5091845;28;20505;-48
2022/02/15 00:39:28;;;;;;;82.38;72.45;;;;;;;9.08;76.04;98397.88;5093954;28;20493;-49
2022/02/15 00:41:54;;;;;;;48.58;41.72;;;;;;;9.14;75.99;98397.09;5093856;28;20016;-48
2022/02/15 00:44:20;;;;;;;61.55;53.85;;;;;;;9.18;76.34;98393.84;5094015;28;20073;-48
2022/02/15 00:46:46;;;;;;;18.83;15.07;;;;;;;9.24;76.03;98396.72;5093822;28;20451;-48
2022/02/15 00:49:12;;;;;;;20.83;11.27;;;;;;;9.15;76.26;98407.34;5093742;28;20086;-48
2022/02/15 00:51:38;;;;;;;20.13;15.70;;;;;;;9.14;76.11;98405.72;5092349;28;20028;-47
2022/02/15 00:54:04;;;;;;;18.27;12.65;;;;;;;9.01;75.74;98410.91;5093698;28;20062;-50
2022/02/15 00:56:30;;;;;;;13.77;10.73;;;;;;;9.06;76.21;98410.34;5093539;28;20051;-49
2022/02/15 00:58:56;;;;;;;15.60;12.50;;;;;;;9.11;75.71;98415.78;5092184;28;20024;-48
2022/02/15 01:01:22;;;;;;;11.80;9.23;;;;;;;9.17;75.85;98412.38;5093496;28;20107;-48
2022/02/15 01:03:48;;;;;;;11.98;9.57;;;;;;;9.01;75.17;98413.53;5093497;28;20107;-49
2022/02/15 01:06:14;;;;;;;12.48;10.93;;;;;;;8.83;74.78;98414.06;5092044;28;20524;-48
2022/02/15 01:08:42;;;;;;;15.50;11.43;;;;;;;8.75;75.54;98422.94;5092079;28;20020;-48
2022/02/15 01:11:09;;;;;;;17.05;12.10;;;;;;;8.76;75.67;98426.34;5093296;28;20070;-49
2022/02/15 01:13:36;;;;;;;37.22;33.30;;;;;;;8.76;76.61;98424.53;5093182;28;20016;-49
2022/02/15 01:16:01;;;;;;;16.45;13.02;;;;;;;8.98;76.18;98419.19;5093120;28;20394;-47
2022/02/15 01:18:28;;;;;;;20.02;12.45;;;;;;;8.94;75.26;98424.00;5091889;28;20016;-48
2022/02/15 01:20:55;;;;;;;17.55;13.82;;;;;;;8.95;75.25;98430.84;5093103;28;20032;-49
2022/02/15 01:23:21;;;;;;;14.85;10.82;;;;;;;8.99;75.71;98437.31;5093053;28;20122;-49
2022/02/15 01:25:47;;;;;;;15.85;11.60;;;;;;;9.05;75.25;98429.66;5092930;28;20031;-48
2022/02/15 01:28:14;;;;;;;17.58;12.23;;;;;;;9.17;75.72;98431.50;5093043;28;20070;-48
2022/02/15 01:30:40;;;;;;;17.73;15.52;;;;;;;9.25;75.08;98434.97;5092959;28;20509;-49
2022/02/15 01:33:06;;;;;;;14.70;10.82;;;;;;;9.22;74.73;98436.16;5091509;28;20493;-49
2022/02/15 01:35:33;;;;;;;14.60;11.98;;;;;;;9.30;74.69;98438.59;5091197;28;20040;-49
2022/02/15 01:37:59;;;;;;;15.05;12.98;;;;;;;9.29;73.81;98442.22;5091467;28;20024;-49
2022/02/15 01:40:24;;;;;;;12.60;8.32;;;;;;;9.25;73.94;98450.66;5092668;28;20138;-47
2022/02/15 01:42:50;;;;;;;8.68;6.93;;;;;;;9.20;73.23;98454.69;5092749;28;20514;-48
2022/02/15 01:45:18;;;;;;;11.30;7.03;;;;;;;9.32;72.72;98451.50;5092634;28;20020;-49
2022/02/15 01:47:45;;;;;;;9.82;7.13;;;;;;;9.50;72.02;98456.97;5091357;28;20027;-47
2022/02/15 01:50:12;;;;;;;10.98;7.50;;;;;;;9.48;72.46;98459.00;5091630;28;20094;-49
2022/02/15 01:52:38;;;;;;;10.27;6.70;;;;;;;9.52;72.15;98459.41;5092570;28;20027;-47
2022/02/15 01:55:07;;;;;;;11.02;7.90;;;;;;;9.52;72.13;98464.66;5092446;28;20020;-49
2022/02/15 01:57:33;;;;;;;8.52;7.13;;;;;;;9.46;71.73;98473.31;5091015;28;20517;-48
2022/02/15 01:59:59;;;;;;;10.07;6.78;;;;;;;9.36;71.66;98469.25;5092399;28;20498;-47
2022/02/15 02:02:27;;;;;;;8.93;6.38;;;;;;;9.29;71.62;98478.06;5092363;28;20085;-47
2022/02/15 02:07:37;;;;;;;7.47;6.35;;;;;;;9.28;71.83;98473.84;5092575;28;20069;-49
2022/02/15 02:10:04;;;;;;;10.50;5.47;;;;;;;9.35;72.20;98474.66;5090875;28;20042;-48
2022/02/15 02:12:30;;;;;;;8.18;5.70;;;;;;;9.55;72.20;98464.25;5092477;28;20024;-48
2022/02/15 02:15:04;;;;;;;37.38;32.78;;;;;;;9.86;71.63;98479.41;5092179;28;20546;-48
2022/02/15 02:17:30;;;;;;;16.10;8.90;;;;;;;10.19;70.32;98476.78;5092140;28;20028;-48
2022/02/15 02:19:57;;;;;;;9.85;6.35;;;;;;;10.45;69.54;98475.16;5092127;28;20517;-49
2022/02/15 02:22:28;;;;;;;11.40;6.38;;;;;;;10.81;68.35;98484.38;5092058;28;20036;-47
2022/02/15 02:24:55;;;;;;;8.98;5.38;;;;;;;10.95;66.98;98480.69;5091985;28;20012;-48
2022/02/15 02:27:30;;;;;;;7.35;4.80;;;;;;;10.92;66.03;98486.34;5092238;28;20059;-48
2022/02/15 02:29:57;;;;;;;8.47;4.70;;;;;;;10.71;66.13;98486.63;5092254;28;20410;-48
2022/02/15 02:32:28;;;;;;;18.33;6.85;;;;;;;10.57;66.00;98489.28;5091966;28;20602;-49
2022/02/15 02:34:55;;;;;;;9.50;4.47;;;;;;;10.51;65.80;98484.84;5091714;28;20515;-47
2022/02/15 02:37:21;;;;;;;7.68;6.00;;;;;;;10.37;66.08;98491.91;5090580;28;20065;-49
2022/02/15 02:39:50;;;;;;;7.55;3.45;;;;;;;10.23;65.96;98494.75;5091786;28;20028;-48
2022/02/15 02:42:18;;;;;;;7.05;3.90;;;;;;;10.05;66.32;98498.75;5091743;28;20386;-47
2022/02/15 02:44:44;;;;;;;8.43;3.25;;;;;;;9.92;66.21;98493.50;5091861;28;20393;-47
2022/02/15 02:47:10;;;;;;;6.40;2.80;;;;;;;9.89;66.41;98499.16;5091824;28;20024;-48
2022/02/15 02:49:36;;;;;;;4.45;2.50;;;;;;;9.96;66.11;98499.97;5091839;28;20448;-47
2022/02/15 02:52:03;;;;;;;6.45;3.38;;;;;;;9.99;65.95;98494.31;5091712;28;20024;-48
2022/02/15 02:54:29;;;;;;;6.20;3.67;;;;;;;9.96;65.38;98500.78;5091841;28;20107;-49
2022/02/15 02:56:56;;;;;;;7.53;2.28;;;;;;;9.97;65.33;98505.00;5091650;28;20020;-48
2022/02/15 02:59:22;;;;;;;13.07;3.22;;;;;;;10.02;65.18;98501.81;5091679;28;20039;-47
2022/02/15 03:01:48;;;;;;;6.13;2.03;;;;;;;10.08;64.75;98515.91;5094708;28;20020;-48
2022/02/15 03:04:14;;;;;;;6.20;2.35;;;;;;;10.14;64.39;98510.69;5095788;28;20024;-49
2022/02/15 03:06:40;;;;;;;15.15;2.88;;;;;;;10.10;64.26;98519.97;5095687;28;20436;-48
2022/02/15 03:09:06;;;;;;;5.15;2.42;;;;;;;10.08;64.27;98513.28;5095649;28;20538;-46
2022/02/15 03:11:33;;;;;;;3.33;1.88;;;;;;;10.10;63.98;98522.56;5095653;28;20504;-48
2022/02/15 03:14:01;;;;;;;5.22;2.08;;;;;;;10.14;63.42;98522.97;5095547;28;20406;-48
2022/02/15 03:16:28;;;;;;;4.88;2.30;;;;;;;10.14;63.49;98523.78;5095418;28;20070;-48
2022/02/15 03:18:54;;;;;;;2.53;1.38;;;;;;;10.09;63.09;98528.03;5095448;28;20515;-48
2022/02/15 03:21:20;;;;;;;3.80;1.63;;;;;;;10.01;62.93;98531.63;5095467;28;20028;-47
2022/02/15 03:23:46;;;;;;;12.98;2.20;;;;;;;9.98;63.08;98527.59;5095438;28;20031;-48
2022/02/15 03:26:13;;;;;;;3.97;1.67;;;;;;;10.11;63.08;98526.81;5095335;28;20398;-47
2022/02/15 03:28:38;;;;;;;4.95;1.35;;;;;;;10.27;63.07;98541.34;5095347;28;20031;-48
2022/02/15 03:31:05;;;;;;;5.72;1.67;;;;;;;10.42;62.61;98553.47;5095280;28;20051;-48
2022/02/15 03:33:31;;;;;;;4.63;2.00;;;;;;;10.45;61.89;98563.56;5093914;28;20077;-48
2022/02/15 03:35:57;;;;;;;8.70;3.83;;;;;;;10.43;61.20;98558.50;5093540;28;20422;-49
2022/02/15 03:38:24;;;;;;;9.02;2.83;;;;;;;10.40;61.20;98558.91;5095047;28;20040;-48
2022/02/15 03:43:34;;;;;;;3.22;1.35;;;;;;;10.21;60.79;98552.63;5095127;28;20046;-47
2022/02/15 03:46:00;;;;;;;4.03;2.05;;;;;;;10.16;60.48;98563.72;5095253;28;20106;-47
2022/02/15 03:48:26;;;;;;;4.97;1.80;;;;;;;10.15;60.68;98571.78;5094925;28;20020;-47
2022/02/15 03:50:51;;;;;;;7.13;2.33;;;;;;;10.17;60.96;98569.78;5094886;28;20028;-48
2022/02/15 03:53:18;;;;;;;3.80;1.13;;;;;;;10.26;60.28;98579.06;5094837;28;20078;-47
2022/02/15 03:55:45;;;;;;;6.03;1.70;;;;;;;10.41;60.10;98583.34;5094758;28;20027;-47
2022/02/15 03:58:11;;;;;;;4.43;1.15;;;;;;;10.53;59.44;98581.72;5094776;28;20103;-48
2022/02/15 04:00:37;;;;;;;3.47;1.33;;;;;;;10.64;58.78;98596.03;5094768;28;20031;-46
2022/02/15 04:03:05;;;;;;;2.83;1.33;;;;;;;10.75;58.33;98596.25;5094694;28;20020;-48
2022/02/15 04:05:31;;;;;;;6.60;1.15;;;;;;;10.92;58.11;98601.88;5093350;28;20020;-47
2022/02/15 04:07:57;;;;;;;7.07;1.73;;;;;;;11.12;57.78;98608.91;5094682;28;20024;-47
2022/02/15 04:10:23;;;;;;;6.70;1.25;;;;;;;11.32;57.00;98612.28;5094751;28;20036;-47
2022/02/15 04:12:49;;;;;;;6.50;2.22;;;;;;;11.45;57.06;98623.78;5093608;28;20109;-47
2022/02/15 04:15:15;;;;;;;3.13;1.10;;;;;;;11.65;56.93;98618.44;5094467;28;20570;-48
2022/02/15 04:17:41;;;;;;;11.00;2.22;;;;;;;11.74;56.50;98623.25;5094385;28;20027;-48
2022/02/15 04:20:07;;;;;;;3.67;1.10;;;;;;;11.85;56.37;98626.25;5094309;28;20073;-48
2022/02/15 04:22:33;;;;;;;3.63;0.80;;;;;;;11.90;56.14;98629.09;5094334;28;20051;-47
2022/02/15 04:25:00;;;;;;;3.15;0.80;;;;;;;11.79;55.89;98628.72;5092961;28;20115;-49
2022/02/15 04:27:27;;;;;;;2.45;1.10;;;;;;;11.56;55.68;98637.06;5094222;28;20059;-47
2022/02/15 04:29:53;;;;;;;2.35;0.80;;;;;;;11.24;55.70;98636.16;5092876;28;20020;-48
2022/02/15 04:32:19;;;;;;;3.25;1.50;;;;;;;10.99;56.44;98633.38;5094153;28;20027;-48
2022/02/15 04:34:45;;;;;;;4.47;1.00;;;;;;;10.85;56.93;98640.47;5093854;28;20016;-49
2022/02/15 04:37:11;;;;;;;2.10;0.80;;;;;;;10.75;57.23;98640.06;5093933;28;20043;-47
2022/02/15 04:39:37;;;;;;;4.50;1.73;;;;;;;10.59;56.84;98642.06;5094005;28;20020;-48
2022/02/15 04:42:03;;;;;;;2.45;0.93;;;;;;;10.46;57.35;98641.25;5093828;28;20093;-48
2022/02/15 04:44:28;;;;;;;6.47;1.23;;;;;;;10.35;57.76;98646.09;5093924;28;20051;-48
2022/02/15 04:46:55;;;;;;;6.10;1.80;;;;;;;10.28;58.00;98652.28;5092480;28;20089;-47
2022/02/15 04:49:21;;;;;;;9.80;1.20;;;;;;;10.26;58.43;98663.00;5092500;28;20393;-48
2022/02/15 04:51:46;;;;;;;5.68;1.27;;;;;;;10.45;58.57;98666.69;5093703;28;20107;-48
2022/02/15 04:54:13;;;;;;;5.65;1.00;;;;;;;10.66;58.22;98657.00;5092364;28;20375;-47
2022/02/15 04:56:39;;;;;;;3.78;1.10;;;;;;;10.84;57.93;98661.66;5093531;28;20056;-48
2022/02/15 04:59:04;;;;;;;4.35;0.90;;;;;;;10.84;57.52;98670.34;5093612;28;20085;-49
2022/02/15 05:01:30;;;;;;;8.32;3.70;;;;;;;10.66;57.54;98668.31;5093579;28;20392;-49
2022/02/15 05:03:56;;;;;;;9.23;4.10;;;;;;;10.37;58.53;98678.19;5093492;28;20608;-48
2022/02/15 05:06:22;;;;;;;8.40;4.13;;;;;;;10.11;59.01;98683.34;5093348;28;20042;-49
2022/02/15 05:08:47;;;;;;;6.13;4.38;;;;;;;9.86;59.95;98683.84;5093402;28;20016;-48
2022/02/15 05:11:14;;;;;;;5.32;2.83;;;;;;;9.75;60.98;98693.06;5092001;28;20047;-49
2022/02/15 05:13:39;;;;;;;7.85;3.97;;;;;;;9.70;61.65;98685.00;5093277;28;20032;-48
2022/02/15 05:16:05;;;;;;;9.73;3.90;;;;;;;9.60;62.83;98695.03;5093190;28;20028;-48
2022/02/15 05:18:31;;;;;;;14.73;6.68;;;;;;;9.44;62.83;98701.38;5093180;28;20027;-47
2022/02/15 05:21:01;;;;;;;7.57;5.03;;;;;;;9.42;64.23;98697.31;5091808;28;20025;-48
2022/02/15 05:23:31;;;;;;;6.68;3.45;;;;;;;9.35;64.36;98698.09;5093123;28;20081;-48
2022/02/15 05:25:58;;;;;;;5.03;3.40;;;;;;;9.21;63.99;98699.00;5093027;28;20043;-47
2022/02/15 05:28:24;;;;;;;5.10;3.40;;;;;;;9.04;64.50;98703.72;5093038;28;20547;-49
2022/02/15 05:30:50;;;;;;;7.20;3.22;;;;;;;8.93;64.13;98712.06;5092954;28;20032;-48
2022/02/15 05:33:16;;;;;;;4.72;2.88;;;;;;;8.97;64.85;98722.00;5092941;28;20028;-47
2022/02/15 05:35:42;;;;;;;58.17;52.33;;;;;;;9.03;65.78;98722.22;5092543;28;20048;-48
2022/02/15 05:38:07;;;;;;;57.08;51.05;;;;;;;8.97;65.37;98716.78;5092874;28;20012;-48
2022/02/15 05:40:33;;;;;;;25.63;21.40;;;;;;;8.80;65.68;98728.47;5092739;28;20446;-47
2022/02/15 05:42:59;;;;;;;24.17;21.27;;;;;;;8.64;66.12;98729.53;5092734;28;20021;-49
2022/02/15 05:45:27;;;;;;;19.30;17.13;;;;;;;8.36;66.46;98735.47;5092654;28;20402;-48
2022/02/15 05:47:53;;;;;;;14.13;12.10;;;;;;;8.18;66.61;98746.31;5092601;28;20016;-48
2022/02/15 05:53:03;;;;;;;81.97;73.20;;;;;;;8.52;67.04;98754.56;5092934;28;20032;-48
2022/02/15 05:55:29;;;;;;;48.33;37.22;;;;;;;8.56;67.84;98751.41;5092460;28;20020;-48
2022/02/15 05:57:54;;;;;;;41.70;34.50;;;;;;;8.77;69.97;98768.94;5092399;28;20559;-47
2022/02/15 06:00:20;;;;;;;35.20;29.63;;;;;;;8.95;69.50;98759.81;5092426;28;20026;-47
2022/02/15 06:02:47;;;;;;;210.10;190.10;;;;;;;8.93;69.09;98759.19;5091028;28;20421;-49
2022/02/15 06:05:13;;;;;;;333.63;300.58;;;;;;;9.11;70.02;98763.97;5092334;28;20477;-48
2022/02/15 06:07:39;;;;;;;115.90;104.93;;;;;;;9.45;69.72;98770.28;5092355;28;20482;-48
2022/02/15 06:10:05;;;;;;;61.55;55.20;;;;;;;9.75;68.80;98769.06;5092218;28;20077;-47
2022/02/15 06:12:31;;;;;;;62.72;56.33;;;;;;;10.05;67.90;98770.66;5090904;28;20027;-47
2022/02/15 06:14:56;;;;;;;29.10;25.15;;;;;;;10.27;66.68;98780.03;5074075;28;20028;-47
2022/02/15 06:17:22;;;;;;;16.73;10.88;;;;;;;10.41;65.23;98775.66;5092298;28;20463;-47
2022/02/15 06:19:48;;;;;;;14.75;9.57;;;;;;;10.48;63.95;98773.84;5092141;28;20043;-48
2022/02/15 06:22:14;;;;;;;64.35;56.78;;;;;;;10.24;62.66;98769.09;5092120;28;20020;-49
2022/02/15 06:24:39;;;;;;;145.75;131.00;;;;;;;9.86;62.93;98780.00;5092096;28;20031;-48
2022/02/15 06:27:05;;;;;;;213.32;192.00;;;;;;;9.43;64.45;98785.38;5092077;28;20401;-47
2022/02/15 06:29:32;;;;;;;140.35;126.15;;;;;;;9.30;65.12;98791.34;5091967;28;20375;-47
2022/02/15 06:31:58;;;;;;;90.55;80.20;;;;;;;9.14;65.24;98797.66;5092000;28;20035;-49
2022/02/15 06:34:25;;;;;;;289.58;260.75;;;;;;;8.94;64.98;98800.88;5092020;28;20565;-48
2022/02/15 06:36:51;;;;;;;93.45;83.75;;;;;;;8.88;66.33;98806.88;5091189;28;20044;-47
2022/02/15 06:39:18;;;;;;;238.13;214.55;;;;;;;8.97;66.74;98818.03;5090641;28;20032;-49
2022/02/15 06:41:43;;;;;;;359.25;321.95;;;;;;;9.09;66.96;98823.56;5091821;28;20047;-49
2022/02/15 06:44:09;;;;;;;91.00;79.60;;;;;;;9.24;66.31;98816.47;5091872;28;20402;-48
2022/02/15 06:46:36;;;;;;;73.03;59.88;;;;;;;9.27;67.33;98813.47;5091754;28;20099;-47
2022/02/15 06:49:02;;;;;;;256.42;229.27;;;;;;;9.28;68.43;98830.81;5091798;28;20482;-48
2022/02/15 06:51:28;;;;;;;297.88;259.02;;;;;;;9.35;69.84;98833.47;5091817;28;20040;-46
2022/02/15 06:53:54;;;;;;;136.93;119.13;;;;;;;9.41;69.94;98837.97;5091760;28;20085;-47
2022/02/15 06:56:20;;;;;;;15.25;10.60;;;;;;;9.46;68.46;98837.41;5091632;28;20024;-48
2022/02/15 06:58:46;;;;;;;247.75;220.63;;;;;;;9.12;68.88;98846.78;5090393;28;20020;-48
2022/02/15 07:01:12;;;;;;;186.48;166.13;;;;;;;8.90;70.32;98853.81;5090310;28;20410;-49
2022/02/15 07:03:37;;;;;;;205.20;179.95;;;;;;;8.91;72.06;98853.59;5091705;28;20022;-49
2022/02/15 07:06:04;;;;;;;127.78;102.85;;;;;;;9.01;73.12;98861.16;5091650;28;20032;-48
2022/02/15 07:08:30;;;;;;;26.25;18.05;;;;;;;9.09;73.84;98865.47;5091659;28;20436;-49
2022/02/15 07:10:56;;;;;;;30.17;20.77;;;;;;;9.13;73.88;98866.72;5091540;28;20049;-47
2022/02/15 07:13:26;;;;;;;13.18;6.80;;;;;;;9.19;74.74;98881.69;5091609;28;20023;-48
2022/02/15 07:15:52;;;;;;;18.85;5.90;;;;;;;9.24;74.94;98879.31;5091547;28;20028;-48
2022/02/15 07:18:19;;;;;;;9.60;3.80;;;;;;;9.38;74.62;98886.31;5091593;28;20024;-47
2022/02/15 07:20:45;;;;;;;13.80;3.70;;;;;;;9.53;74.63;98886.22;5090180;28;20406;-47
2022/02/15 07:23:13;;;;;;;11.90;3.97;;;;;;;9.59;74.40;98888.09;5091520;28;20028;-48
2022/02/15 07:25:39;;;;;;;15.70;4.95;;;;;;;9.44;74.42;98890.00;5091481;28;20031;-47
2022/02/15 07:28:05;;;;;;;8.93;2.75;;;;;;;9.35;74.90;98881.44;5091513;28;20397;-48
2022/02/15 07:30:31;;;;;;;8.63;3.25;;;;;;;9.13;74.20;98887.66;5091392;28;20024;-48
2022/02/15 07:32:58;;;;;;;21.98;3.60;;;;;;;8.91;74.24;98895.47;5090092;28;20035;-47
2022/02/15 07:35:23;;;;;;;34.28;5.55;;;;;;;8.90;74.89;98903.53;5091094;28;20048;-48
2022/02/15 07:37:50;;;;;;;10.50;2.50;;;;;;;8.90;73.96;98908.75;5091355;28;20024;-48
2022/02/15 07:40:22;;;;;;;17.75;3.75;;;;;;;8.67;74.37;98903.63;5091339;28;20102;-48
2022/02/15 07:42:49;;;;;;;4.40;1.90;;;;;;;8.86;75.35;98908.31;5091348;28;20149;-48
2022/02/15 07:45:19;;;;;;;11.07;2.83;;;;;;;9.20;74.42;98920.78;5091277;28;20029;-47
2022/02/15 07:47:50;;;;;;;13.02;4.28;;;;;;;9.52;73.63;98918.69;5092473;28;20024;-47
2022/02/15 07:50:18;;;;;;;17.35;3.55;;;;;;;9.76;73.14;98917.47;5094918;28;20485;-47
2022/02/15 07:52:57;;;;;;;17.27;3.30;;;;;;;9.80;72.05;98913.47;5093589;28;20107;-48
2022/02/15 07:55:24;;;;;;;13.70;2.42;;;;;;;9.63;71.68;98922.59;5094838;28;20028;-48
2022/02/15 07:57:50;;;;;;;6.55;2.20;;;;;;;9.69;70.39;98921.03;5094722;28;20024;-46
2022/02/15 08:00:21;;;;;;;9.77;2.95;;;;;;;9.58;70.73;98923.16;5094794;28;20027;-47
2022/02/15 08:02:48;;;;;;;6.65;2.40;;;;;;;9.84;71.12;98927.00;5094765;28;20024;-47
2022/02/15 08:05:14;;;;;;;37.10;3.63;;;;;;;10.18;70.66;98930.66;5093349;28;20020;-46
2022/02/15 08:07:45;;;;;;;36.17;3.95;;;;;;;10.51;69.57;98930.91;5094542;28;20020;-48
2022/02/15 08:10:11;;;;;;;19.58;2.97;;;;;;;10.84;69.97;98927.63;5094583;28;20032;-48
2022/02/15 08:12:36;;;;;;;11.23;2.58;;;;;;;10.98;68.15;98933.75;5076443;28;20031;-48
2022/02/15 08:15:03;;;;;;;4.45;1.85;;;;;;;11.18;67.69;98937.25;5076334;28;20032;-47
2022/02/15 08:17:29;;;;;;;7.50;1.90;;;;;;;11.24;66.99;98943.53;5094321;28;20153;-46
2022/02/15 08:19:54;;;;;;;7.55;2.50;;;;;;;11.08;65.13;98934.19;5094401;28;20095;-48
2022/02/15 08:22:21;;;;;;;4.18;2.25;;;;;;;10.74;65.38;98932.44;5094326;28;20077;-48
2022/02/15 08:24:47;;;;;;;15.02;9.65;;;;;;;10.57;65.10;98943.25;5094598;28;20043;-48
2022/02/15 08:27:14;;;;;;;56.17;9.57;;;;;;;10.58;65.89;98939.66;5094219;28;20038;-48
2022/02/15 08:29:39;;;;;;;34.17;8.40;;;;;;;10.71;65.99;98944.16;5092887;28;20020;-48
2022/02/15 08:32:05;;;;;;;7.05;2.35;;;;;;;10.83;65.99;98956.72;5094083;28;20102;-47
2022/02/15 08:34:32;;;;;;;13.88;3.47;;;;;;;10.87;65.67;98960.59;5092779;28;20027;-47
2022/02/15 08:36:59;;;;;;;16.17;3.03;;;;;;;10.98;65.81;98952.13;5093772;28;20056;-48
2022/02/15 08:39:25;;;;;;;11.00;2.50;;;;;;;11.04;64.99;98961.03;5092707;28;20539;-48
2022/02/15 08:41:51;;;;;;;12.98;3.70;;;;;;;10.83;64.78;98956.72;5093981;28;20028;-49
2022/02/15 08:44:17;;;;;;;57.88;7.25;;;;;;;10.77;65.09;98958.31;5092545;28;20027;-47
2022/02/15 08:46:43;;;;;;;19.55;3.35;;;;;;;10.92;64.92;98955.53;5093890;28;20020;-48
2022/02/15 08:49:08;;;;;;;11.25;3.15;;;;;;;11.13;63.92;98959.88;5093827;28;20099;-47
2022/02/15 08:51:38;;;;;;;9.80;2.90;;;;;;;11.49;63.46;98959.56;5092450;28;20101;-47
2022/02/15 08:54:04;;;;;;;16.52;3.03;;;;;;;12.17;62.82;98963.88;5093691;28;20054;-48
2022/02/15 08:56:30;;;;;;;5.03;2.25;;;;;;;12.91;61.18;98969.81;5093621;28;20035;-48
2022/02/15 08:58:57;;;;;;;5.32;2.30;;;;;;;14.46;56.90;98958.03;5091986;28;20577;-49
2022/02/15 09:01:22;;;;;;;64.10;8.55;;;;;;;14.84;57.42;98955.22;5092257;28;20127;-49
2022/02/15 09:03:48;;;;;;;25.52;4.95;;;;;;;15.01;56.09;98965.16;5093645;28;20064;-48
2022/02/15 09:06:14;;;;;;;21.50;9.40;;;;;;;14.85;55.62;98959.47;5092140;28;20043;-49
2022/02/15 09:08:40;;;;;;;15.00;5.57;;;;;;;14.54;55.25;98968.31;5093482;28;20402;-48
2022/02/15 09:11:06;;;;;;;71.00;39.05;;;;;;;14.10;56.25;98970.13;5093383;28;20024;-49
2022/02/15 09:13:32;;;;;;;12.40;4.43;;;;;;;14.14;56.16;98979.22;5093327;28;20017;-48
2022/02/15 09:15:58;;;;;;;15.77;3.97;;;;;;;14.23;54.68;98971.88;5093232;28;20495;-48
2022/02/15 09:18:24;;;;;;;13.30;2.90;;;;;;;14.71;54.11;98973.88;5093268;28;20027;-49
2022/02/15 09:20:51;;;;;;;13.00;3.40;;;;;;;15.71;51.74;98962.78;5093222;28;20024;-49
2022/02/15 09:23:16;;;;;;;9.18;2.60;;;;;;;15.40;51.40;98973.63;5091834;28;20523;-48
2022/02/15 09:25:42;;;;;;;23.85;5.70;;;;;;;14.67;52.76;98985.88;5093133;28;20032;-48
2022/02/15 09:28:08;;;;;;;18.83;3.90;;;;;;;14.28;54.06;98986.00;5093084;28;20424;-49
2022/02/15 09:30:33;;;;;;;10.13;3.30;;;;;;;14.12;53.98;98984.72;5091743;28;20024;-49
2022/02/15 09:32:59;;;;;;;11.73;2.70;;;;;;;13.97;54.08;98982.41;5091712;28;20054;-48
2022/02/15 09:35:25;;;;;;;16.52;2.67;;;;;;;13.87;53.02;98979.44;5091433;28;20095;-48
2022/02/15 09:37:51;;;;;;;11.02;2.92;;;;;;;13.83;53.73;98990.66;5075080;28;20035;-48
2022/02/15 09:40:17;;;;;;;8.05;2.17;;;;;;;13.69;53.25;98989.94;5092828;28;20482;-48
2022/02/15 09:42:44;;;;;;;10.43;2.80;;;;;;;13.48;52.98;98988.41;5092666;28;20032;-47
2022/02/15 09:45:11;;;;;;;8.32;2.22;;;;;;;13.32;52.91;98990.53;5091373;28;20020;-49
2022/02/15 09:47:41;;;;;;;5.35;1.58;;;;;;;13.24;53.42;98990.75;5091425;28;20028;-47
2022/02/15 09:50:08;;;;;;;8.65;1.70;;;;;;;13.28;53.14;98991.13;5092652;28;20020;-48
2022/02/15 09:52:35;;;;;;;10.75;2.13;;;;;;;13.31;52.73;98985.47;5091261;28;20024;-50
2022/02/15 09:55:01;;;;;;;5.10;2.10;;;;;;;13.46;52.82;98993.94;5092502;28;20025;-48
2022/02/15 09:57:27;;;;;;;6.47;1.67;;;;;;;13.82;52.37;98995.09;5092451;28;20020;-49
2022/02/15 09:59:54;;;;;;;4.60;1.88;;;;;;;13.81;52.85;98995.34;5092530;28;20055;-48
2022/02/15 10:02:30;;;;;;;5.47;1.90;;;;;;;13.82;51.93;98995.09;5091116;28;20028;-48
2022/02/15 10:04:57;;;;;;;14.07;2.33;;;;;;;13.96;51.39;99001.94;5092455;28;20020;-48
2022/02/15 10:07:25;;;;;;;8.95;2.15;;;;;;;14.19;50.95;99003.97;5090948;28;20039;-49
2022/02/15 10:09:53;;;;;;;16.90;3.03;;;;;;;14.50;51.00;99004.91;5091881;28;20488;-48
2022/02/15 10:12:20;;;;;;;9.38;1.85;;;;;;;14.85;49.58;99003.56;5092131;28;20027;-48
2022/02/15 10:14:52;;;;;;;9.63;2.55;;;;;;;14.98;49.58;99012.16;5092269;28;20024;-49
2022/02/15 10:17:19;;;;;;;12.55;3.25;;;;;;;15.00;49.24;99022.50;5090860;28;20119;-49
2022/02/15 10:19:48;;;;;;;23.90;3.65;;;;;;;14.89;49.33;99016.16;5090844;28;20382;-49
2022/02/15 10:22:17;;;;;;;9.82;1.83;;;;;;;14.71;48.67;99026.72;5092123;28;20024;-50
2022/02/15 10:24:50;;;;;;;13.18;1.75;;;;;;;14.61;48.81;99035.13;5092165;28;20029;-49
2022/02/15 10:27:16;;;;;;;6.22;1.90;;;;;;;14.67;48.53;99034.25;5092134;28;20036;-50
2022/02/15 10:29:44;;;;;;;7.05;1.75;;;;;;;14.82;47.81;99031.25;5092034;28;20042;-50
2022/02/15 10:32:13;;;;;;;17.52;2.58;;;;;;;14.86;47.29;99045.63;5090623;28;20024;-50
2022/02/15 10:34:49;;;;;;;16.08;2.22;;;;;;;14.82;46.78;99047.09;5091945;28;20020;-49
2022/02/15 10:37:16;;;;;;;8.98;1.67;;;;;;;14.72;46.74;99049.44;5091911;28;20032;-49
2022/02/15 10:39:44;;;;;;;4.55;1.00;;;;;;;14.68;46.30;99045.63;5091965;28;20066;-49
2022/02/15 10:42:16;;;;;;;5.95;1.27;;;;;;;14.62;46.42;99055.22;5091847;28;20032;-50
2022/02/15 10:45:01;;;;;;;7.03;1.88;;;;;;;14.70;45.86;99057.56;5090559;28;20027;-49
2022/02/15 10:47:32;;;;;;;8.88;1.27;;;;;;;14.85;45.53;99064.34;5090613;28;20593;-50
2022/02/15 10:50:07;;;;;;;7.45;2.08;;;;;;;14.98;45.14;99065.03;5091741;28;20031;-49
2022/02/15 10:52:33;;;;;;;13.57;1.92;;;;;;;15.11;45.03;99068.53;5091885;28;20036;-49
2022/02/15 10:55:00;;;;;;;5.13;1.20;;;;;;;15.14;44.92;99070.75;5090491;28;20028;-50
2022/02/15 10:57:26;;;;;;;7.97;1.83;;;;;;;15.20;44.65;99071.72;5090352;28;20059;-50
2022/02/15 10:59:55;;;;;;;8.60;1.70;;;;;;;15.15;44.56;99072.38;5091727;28;20069;-49
2022/02/15 11:02:23;;;;;;;9.30;1.92;;;;;;;15.22;44.67;99070.47;5091673;28;20103;-49
2022/02/15 11:04:50;;;;;;;9.88;1.92;;;;;;;15.55;44.12;99072.72;5091661;28;20028;-50
2022/02/15 11:07:18;;;;;;;10.93;1.67;;;;;;;15.95;43.62;99064.25;5091606;28;20477;-50
2022/02/15 11:10:17;;;;;;;4.32;1.65;;;;;;;16.41;42.80;99072.53;5091609;28;20016;-49
2022/02/15 11:12:47;;;;;;;3.65;1.45;;;;;;;16.46;41.20;99077.13;5090400;28;20036;-50
2022/02/15 11:15:20;;;;;;;3.95;1.35;;;;;;;16.32;40.70;99068.63;5091758;28;20111;-51
2022/02/15 11:17:49;;;;;;;5.78;1.80;;;;;;;16.05;40.90;99074.31;5091514;28;20032;-51
2022/02/15 11:20:20;;;;;;;3.35;1.20;;;;;;;15.94;41.51;99064.50;5091489;28;20012;-50
2022/02/15 11:22:53;;;;;;;12.90;2.33;;;;;;;15.85;42.02;99061.34;5094424;28;20034;-50
2022/02/15 11:25:35;;;;;;;5.80;1.05;;;;;;;15.77;41.04;99069.59;5095422;28;20024;-50
2022/02/15 11:28:11;;;;;;;4.80;1.52;;;;;;;15.60;40.65;99061.47;5094104;28;20032;-49
2022/02/15 11:30:51;;;;;;;6.13;1.45;;;;;;;15.28;40.52;99053.72;5095352;28;20078;-51
2022/02/15 11:33:22;;;;;;;5.18;1.35;;;;;;;15.02;40.88;99054.03;5093986;28;20032;-50
2022/02/15 11:35:55;;;;;;;6.75;1.25;;;;;;;15.01;41.06;99052.38;5093609;28;20040;-50